sensor_id;sensor_type;location;lat;lon;timestamp;temperature;humidity
49549;DHT22;35450;44.518;7.466;2023-05-21T00:01:56;13.00;99.90
49549;DHT22;35450;44.518;7.466;2023-05-21T00:05:02;13.00;99.90
49549;DHT22;35450;44.518;7.466;2023-05-21T00:08:07;13.10;99.90
49549;DHT22;35450;44.518;7.466;2023-05-21T00:11:11;13.10;99.90
49549;DHT22;35450;44.518;7.466;2023-05-21T00:14:15;13.00;99.90
49549;DHT22;35450;44.518;7.466;2023-05-21T00:17:19;13.10;99.90
49549;DHT22;35450;44.518;7.466;2023-05-21T00:20:23;13.10;99.90
49549;DHT22;35450;44.518;7.466;2023-05-21T00:23:27;13.00;99.90
49549;DHT22;35450;44.518;7.466;2023-05-21T00:26:31;13.10;99.90
49549;DHT22;35450;44.518;7.466;2023-05-21T00:29:36;13.00;99.90
49549;DHT22;35450;44.518;7.466;2023-05-21T00:32:40;13.00;99.90
49549;DHT22;35450;44.518;7.466;2023-05-21T00:35:44;13.00;99.90
49549;DHT22;35450;44.518;7.466;2023-05-21T00:38:49;13.00;99.90
49549;DHT22;35450;44.518;7.466;2023-05-21T00:41:53;13.10;99.90
49549;DHT22;35450;44.518;7.466;2023-05-21T00:44:59;13.10;99.90
49549;DHT22;35450;44.518;7.466;2023-05-21T00:48:06;13.20;99.90
49549;DHT22;35450;44.518;7.466;2023-05-21T00:51:12;13.20;99.90
49549;DHT22;35450;44.518;7.466;2023-05-21T00:54:16;13.10;99.90
49549;DHT22;35450;44.518;7.466;2023-05-21T00:57:24;13.10;99.90
49549;DHT22;35450;44.518;7.466;2023-05-21T01:00:28;13.10;99.90
49549;DHT22;35450;44.518;7.466;2023-05-21T01:03:34;13.00;99.90
49549;DHT22;35450;44.518;7.466;2023-05-21T01:06:41;13.00;99.90
49549;DHT22;35450;44.518;7.466;2023-05-21T01:09:45;13.10;99.90
49549;DHT22;35450;44.518;7.466;2023-05-21T01:12:50;13.10;99.90
49549;DHT22;35450;44.518;7.466;2023-05-21T01:15:55;13.10;99.90
49549;DHT22;35450;44.518;7.466;2023-05-21T01:19:01;13.10;99.90
49549;DHT22;35450;44.518;7.466;2023-05-21T01:22:06;13.10;99.90
49549;DHT22;35450;44.518;7.466;2023-05-21T01:25:11;13.20;99.90
49549;DHT22;35450;44.518;7.466;2023-05-21T01:28:15;13.20;99.90
49549;DHT22;35450;44.518;7.466;2023-05-21T01:31:33;13.20;99.90
49549;DHT22;35450;44.518;7.466;2023-05-21T01:34:44;13.20;99.90
49549;DHT22;35450;44.518;7.466;2023-05-21T01:41:12;13.10;99.90
49549;DHT22;35450;44.518;7.466;2023-05-21T01:44:18;13.20;99.90
49549;DHT22;35450;44.518;7.466;2023-05-21T01:47:23;13.10;99.90
49549;DHT22;35450;44.518;7.466;2023-05-21T01:50:29;13.10;99.90
49549;DHT22;35450;44.518;7.466;2023-05-21T01:53:34;13.10;99.90
49549;DHT22;35450;44.518;7.466;2023-05-21T01:56:38;13.10;99.90
49549;DHT22;35450;44.518;7.466;2023-05-21T01:59:41;13.10;99.90
49549;DHT22;35450;44.518;7.466;2023-05-21T02:02:47;13.10;99.90
49549;DHT22;35450;44.518;7.466;2023-05-21T02:05:51;13.10;99.90
49549;DHT22;35450;44.518;7.466;2023-05-21T02:08:55;13.10;99.90
49549;DHT22;35450;44.518;7.466;2023-05-21T02:12:00;13.00;99.90
49549;DHT22;35450;44.518;7.466;2023-05-21T02:15:05;13.10;99.90
49549;DHT22;35450;44.518;7.466;2023-05-21T02:18:09;13.10;99.90
49549;DHT22;35450;44.518;7.466;2023-05-21T02:21:14;13.10;99.90
49549;DHT22;35450;44.518;7.466;2023-05-21T02:24:18;13.10;99.90
49549;DHT22;35450;44.518;7.466;2023-05-21T02:27:22;13.20;99.90
49549;DHT22;35450;44.518;7.466;2023-05-21T02:30:26;13.20;99.90
49549;DHT22;35450;44.518;7.466;2023-05-21T02:33:30;13.20;99.90
49549;DHT22;35450;44.518;7.466;2023-05-21T02:36:34;13.10;99.90
49549;DHT22;35450;44.518;7.466;2023-05-21T02:39:38;13.20;99.90
49549;DHT22;35450;44.518;7.466;2023-05-21T02:42:43;13.10;99.90
49549;DHT22;35450;44.518;7.466;2023-05-21T02:45:51;13.10;99.90
49549;DHT22;35450;44.518;7.466;2023-05-21T02:48:56;13.10;99.90
49549;DHT22;35450;44.518;7.466;2023-05-21T02:52:00;13.10;99.90
49549;DHT22;35450;44.518;7.466;2023-05-21T02:55:04;13.20;99.90
49549;DHT22;35450;44.518;7.466;2023-05-21T02:58:08;13.10;99.90
49549;DHT22;35450;44.518;7.466;2023-05-21T03:01:12;13.10;99.90
49549;DHT22;35450;44.518;7.466;2023-05-21T03:04:16;13.10;99.90
49549;DHT22;35450;44.518;7.466;2023-05-21T03:07:21;13.20;99.90
49549;DHT22;35450;44.518;7.466;2023-05-21T03:10:25;13.10;99.90
49549;DHT22;35450;44.518;7.466;2023-05-21T03:13:30;13.10;99.90
49549;DHT22;35450;44.518;7.466;2023-05-21T03:16:34;13.10;99.90
49549;DHT22;35450;44.518;7.466;2023-05-21T03:19:39;13.10;99.90
49549;DHT22;35450;44.518;7.466;2023-05-21T03:22:44;13.10;99.90
49549;DHT22;35450;44.518;7.466;2023-05-21T03:25:49;13.10;99.90
49549;DHT22;35450;44.518;7.466;2023-05-21T03:28:53;13.10;99.90
49549;DHT22;35450;44.518;7.466;2023-05-21T03:32:00;13.10;99.90
49549;DHT22;35450;44.518;7.466;2023-05-21T03:35:04;13.10;99.90
49549;DHT22;35450;44.518;7.466;2023-05-21T03:38:08;13.10;99.90
49549;DHT22;35450;44.518;7.466;2023-05-21T03:41:12;13.10;99.90
49549;DHT22;35450;44.518;7.466;2023-05-21T03:44:18;13.10;99.90
49549;DHT22;35450;44.518;7.466;2023-05-21T03:47:27;13.10;99.90
49549;DHT22;35450;44.518;7.466;2023-05-21T03:50:31;13.10;99.90
49549;DHT22;35450;44.518;7.466;2023-05-21T03:53:36;13.10;99.90
49549;DHT22;35450;44.518;7.466;2023-05-21T03:56:40;13.20;99.90
49549;DHT22;35450;44.518;7.466;2023-05-21T03:59:43;13.20;99.90
49549;DHT22;35450;44.518;7.466;2023-05-21T04:02:47;13.20;99.90
49549;DHT22;35450;44.518;7.466;2023-05-21T04:05:53;13.20;99.90
49549;DHT22;35450;44.518;7.466;2023-05-21T04:08:58;13.20;99.90
49549;DHT22;35450;44.518;7.466;2023-05-21T04:12:01;13.20;99.90
49549;DHT22;35450;44.518;7.466;2023-05-21T04:15:07;13.20;99.90
49549;DHT22;35450;44.518;7.466;2023-05-21T04:18:12;13.10;99.90
49549;DHT22;35450;44.518;7.466;2023-05-21T04:21:18;13.20;99.90
49549;DHT22;35450;44.518;7.466;2023-05-21T04:24:23;13.20;99.90
49549;DHT22;35450;44.518;7.466;2023-05-21T04:27:44;13.30;99.90
49549;DHT22;35450;44.518;7.466;2023-05-21T04:30:51;13.20;99.90
49549;DHT22;35450;44.518;7.466;2023-05-21T04:33:55;13.20;99.90
49549;DHT22;35450;44.518;7.466;2023-05-21T04:37:00;13.20;99.90
49549;DHT22;35450;44.518;7.466;2023-05-21T04:40:05;13.30;99.90
49549;DHT22;35450;44.518;7.466;2023-05-21T04:43:09;13.30;99.90
49549;DHT22;35450;44.518;7.466;2023-05-21T04:46:14;13.30;99.90
49549;DHT22;35450;44.518;7.466;2023-05-21T04:49:18;13.30;99.90
49549;DHT22;35450;44.518;7.466;2023-05-21T04:52:23;13.40;99.90
49549;DHT22;35450;44.518;7.466;2023-05-21T04:55:27;13.30;99.90
49549;DHT22;35450;44.518;7.466;2023-05-21T04:58:31;13.40;99.90
49549;DHT22;35450;44.518;7.466;2023-05-21T05:01:37;13.30;99.90
49549;DHT22;35450;44.518;7.466;2023-05-21T05:04:41;13.30;99.90
49549;DHT22;35450;44.518;7.466;2023-05-21T05:07:46;13.30;99.90
49549;DHT22;35450;44.518;7.466;2023-05-21T05:10:50;13.40;99.90
49549;DHT22;35450;44.518;7.466;2023-05-21T05:13:54;13.30;99.90
49549;DHT22;35450;44.518;7.466;2023-05-21T05:16:58;13.30;99.90
49549;DHT22;35450;44.518;7.466;2023-05-21T05:20:03;13.30;99.90
49549;DHT22;35450;44.518;7.466;2023-05-21T05:23:07;13.40;99.90
49549;DHT22;35450;44.518;7.466;2023-05-21T05:26:11;13.40;99.90
49549;DHT22;35450;44.518;7.466;2023-05-21T05:29:16;13.40;99.90
49549;DHT22;35450;44.518;7.466;2023-05-21T05:32:20;13.40;99.90
49549;DHT22;35450;44.518;7.466;2023-05-21T05:35:24;13.40;99.90
49549;DHT22;35450;44.518;7.466;2023-05-21T05:38:28;13.40;99.90
49549;DHT22;35450;44.518;7.466;2023-05-21T05:41:32;13.40;99.90
49549;DHT22;35450;44.518;7.466;2023-05-21T05:44:36;13.50;99.90
49549;DHT22;35450;44.518;7.466;2023-05-21T05:47:40;13.50;99.90
49549;DHT22;35450;44.518;7.466;2023-05-21T05:50:44;13.50;99.90
49549;DHT22;35450;44.518;7.466;2023-05-21T05:53:48;13.50;99.90
49549;DHT22;35450;44.518;7.466;2023-05-21T05:56:52;13.50;99.90
49549;DHT22;35450;44.518;7.466;2023-05-21T05:59:56;13.60;99.90
49549;DHT22;35450;44.518;7.466;2023-05-21T06:03:00;13.60;99.90
49549;DHT22;35450;44.518;7.466;2023-05-21T06:06:05;13.60;99.90
49549;DHT22;35450;44.518;7.466;2023-05-21T06:09:10;13.60;99.90
49549;DHT22;35450;44.518;7.466;2023-05-21T06:12:14;13.70;99.90
49549;DHT22;35450;44.518;7.466;2023-05-21T06:15:18;13.60;99.90
49549;DHT22;35450;44.518;7.466;2023-05-21T06:18:23;13.70;99.90
49549;DHT22;35450;44.518;7.466;2023-05-21T06:21:27;13.70;99.90
49549;DHT22;35450;44.518;7.466;2023-05-21T06:24:31;13.60;99.90
49549;DHT22;35450;44.518;7.466;2023-05-21T06:27:36;13.70;99.90
49549;DHT22;35450;44.518;7.466;2023-05-21T06:30:43;13.70;99.90
49549;DHT22;35450;44.518;7.466;2023-05-21T06:33:48;13.60;99.90
49549;DHT22;35450;44.518;7.466;2023-05-21T06:36:52;13.70;99.90
49549;DHT22;35450;44.518;7.466;2023-05-21T06:39:56;13.70;99.90
49549;DHT22;35450;44.518;7.466;2023-05-21T06:43:00;13.70;99.90
49549;DHT22;35450;44.518;7.466;2023-05-21T06:46:09;13.80;99.90
49549;DHT22;35450;44.518;7.466;2023-05-21T06:49:16;13.80;99.90
49549;DHT22;35450;44.518;7.466;2023-05-21T06:52:20;13.80;99.90
49549;DHT22;35450;44.518;7.466;2023-05-21T06:55:25;13.80;99.90
49549;DHT22;35450;44.518;7.466;2023-05-21T06:58:43;13.80;99.90
49549;DHT22;35450;44.518;7.466;2023-05-21T07:01:47;13.90;99.90
49549;DHT22;35450;44.518;7.466;2023-05-21T07:04:51;13.90;99.90
49549;DHT22;35450;44.518;7.466;2023-05-21T07:07:57;13.90;99.90
49549;DHT22;35450;44.518;7.466;2023-05-21T07:11:01;13.90;99.90
49549;DHT22;35450;44.518;7.466;2023-05-21T07:14:07;14.00;99.90
49549;DHT22;35450;44.518;7.466;2023-05-21T07:17:13;14.00;99.90
49549;DHT22;35450;44.518;7.466;2023-05-21T07:20:17;14.00;99.90
49549;DHT22;35450;44.518;7.466;2023-05-21T07:23:24;14.00;99.90
49549;DHT22;35450;44.518;7.466;2023-05-21T07:26:28;14.10;99.90
49549;DHT22;35450;44.518;7.466;2023-05-21T07:29:32;14.10;99.90
49549;DHT22;35450;44.518;7.466;2023-05-21T07:32:37;14.10;99.90
49549;DHT22;35450;44.518;7.466;2023-05-21T07:35:41;14.20;99.90
49549;DHT22;35450;44.518;7.466;2023-05-21T07:38:45;14.30;99.90
49549;DHT22;35450;44.518;7.466;2023-05-21T07:41:50;14.30;99.90
49549;DHT22;35450;44.518;7.466;2023-05-21T07:44:53;14.30;99.90
49549;DHT22;35450;44.518;7.466;2023-05-21T07:47:59;14.40;99.90
49549;DHT22;35450;44.518;7.466;2023-05-21T07:51:04;14.40;99.90
49549;DHT22;35450;44.518;7.466;2023-05-21T07:54:09;14.50;99.90
49549;DHT22;35450;44.518;7.466;2023-05-21T07:57:13;14.50;99.90
49549;DHT22;35450;44.518;7.466;2023-05-21T08:00:42;14.50;99.90
49549;DHT22;35450;44.518;7.466;2023-05-21T08:03:48;14.50;99.90
49549;DHT22;35450;44.518;7.466;2023-05-21T08:06:52;14.60;99.90
49549;DHT22;35450;44.518;7.466;2023-05-21T08:09:56;14.50;99.90
49549;DHT22;35450;44.518;7.466;2023-05-21T08:13:00;14.60;99.90
49549;DHT22;35450;44.518;7.466;2023-05-21T08:16:05;14.60;99.90
49549;DHT22;35450;44.518;7.466;2023-05-21T08:19:09;14.50;99.90
49549;DHT22;35450;44.518;7.466;2023-05-21T08:22:13;14.50;99.90
49549;DHT22;35450;44.518;7.466;2023-05-21T08:25:21;14.50;99.90
49549;DHT22;35450;44.518;7.466;2023-05-21T08:28:25;14.60;99.90
49549;DHT22;35450;44.518;7.466;2023-05-21T08:31:31;14.60;99.90
49549;DHT22;35450;44.518;7.466;2023-05-21T08:34:35;14.50;99.90
49549;DHT22;35450;44.518;7.466;2023-05-21T08:38:06;14.50;99.90
49549;DHT22;35450;44.518;7.466;2023-05-21T08:41:21;14.50;99.90
49549;DHT22;35450;44.518;7.466;2023-05-21T08:44:26;14.50;99.90
49549;DHT22;35450;44.518;7.466;2023-05-21T08:47:34;14.50;99.90
49549;DHT22;35450;44.518;7.466;2023-05-21T08:50:40;14.50;99.90
49549;DHT22;35450;44.518;7.466;2023-05-21T08:53:51;14.60;99.90
49549;DHT22;35450;44.518;7.466;2023-05-21T08:56:58;14.60;99.90
49549;DHT22;35450;44.518;7.466;2023-05-21T09:00:03;14.60;99.90
49549;DHT22;35450;44.518;7.466;2023-05-21T09:03:12;14.70;99.90
49549;DHT22;35450;44.518;7.466;2023-05-21T09:06:19;14.70;99.90
49549;DHT22;35450;44.518;7.466;2023-05-21T09:09:29;14.70;99.90
49549;DHT22;35450;44.518;7.466;2023-05-21T09:12:35;14.80;99.90
49549;DHT22;35450;44.518;7.466;2023-05-21T09:15:40;14.90;99.90
49549;DHT22;35450;44.518;7.466;2023-05-21T09:18:44;14.90;99.90
49549;DHT22;35450;44.518;7.466;2023-05-21T09:22:02;14.90;99.90
49549;DHT22;35450;44.518;7.466;2023-05-21T09:25:08;14.90;99.90
49549;DHT22;35450;44.518;7.466;2023-05-21T09:28:13;15.00;99.90
49549;DHT22;35450;44.518;7.466;2023-05-21T09:31:17;15.00;99.90
49549;DHT22;35450;44.518;7.466;2023-05-21T09:34:24;15.00;99.90
49549;DHT22;35450;44.518;7.466;2023-05-21T09:37:28;15.00;99.90
49549;DHT22;35450;44.518;7.466;2023-05-21T09:40:34;15.00;99.90
49549;DHT22;35450;44.518;7.466;2023-05-21T09:43:41;15.00;99.90
49549;DHT22;35450;44.518;7.466;2023-05-21T09:46:46;15.00;99.90
49549;DHT22;35450;44.518;7.466;2023-05-21T09:49:50;14.90;99.90
49549;DHT22;35450;44.518;7.466;2023-05-21T09:52:54;14.90;99.90
49549;DHT22;35450;44.518;7.466;2023-05-21T09:55:58;14.90;99.90
49549;DHT22;35450;44.518;7.466;2023-05-21T09:59:03;15.00;99.90
49549;DHT22;35450;44.518;7.466;2023-05-21T10:02:19;15.00;99.90
49549;DHT22;35450;44.518;7.466;2023-05-21T10:05:25;15.00;99.90
49549;DHT22;35450;44.518;7.466;2023-05-21T10:11:36;15.00;99.90
49549;DHT22;35450;44.518;7.466;2023-05-21T10:14:45;15.00;99.90
49549;DHT22;35450;44.518;7.466;2023-05-21T10:17:54;15.00;99.90
49549;DHT22;35450;44.518;7.466;2023-05-21T10:20:59;15.00;99.90
49549;DHT22;35450;44.518;7.466;2023-05-21T10:24:05;15.00;99.90
49549;DHT22;35450;44.518;7.466;2023-05-21T10:27:11;15.00;99.90
49549;DHT22;35450;44.518;7.466;2023-05-21T10:30:17;15.10;99.90
49549;DHT22;35450;44.518;7.466;2023-05-21T10:33:22;15.10;99.90
49549;DHT22;35450;44.518;7.466;2023-05-21T10:36:29;15.10;99.90
49549;DHT22;35450;44.518;7.466;2023-05-21T10:39:38;15.10;99.90
49549;DHT22;35450;44.518;7.466;2023-05-21T10:59:42;15.10;99.90
49549;DHT22;35450;44.518;7.466;2023-05-21T11:02:49;15.10;99.90
49549;DHT22;35450;44.518;7.466;2023-05-21T11:05:56;15.10;99.90
49549;DHT22;35450;44.518;7.466;2023-05-21T11:09:02;15.10;99.90
49549;DHT22;35450;44.518;7.466;2023-05-21T11:12:13;15.00;99.90
49549;DHT22;35450;44.518;7.466;2023-05-21T11:15:17;15.00;99.90
49549;DHT22;35450;44.518;7.466;2023-05-21T11:21:50;15.00;99.90
49549;DHT22;35450;44.518;7.466;2023-05-21T11:24:56;15.00;99.90
49549;DHT22;35450;44.518;7.466;2023-05-21T11:28:04;15.00;99.90
49549;DHT22;35450;44.518;7.466;2023-05-21T11:31:25;15.00;99.90
49549;DHT22;35450;44.518;7.466;2023-05-21T11:34:37;15.00;99.90
49549;DHT22;35450;44.518;7.466;2023-05-21T11:37:42;15.00;99.90
49549;DHT22;35450;44.518;7.466;2023-05-21T11:40:52;14.90;99.90
49549;DHT22;35450;44.518;7.466;2023-05-21T11:44:00;15.00;99.90
49549;DHT22;35450;44.518;7.466;2023-05-21T11:47:05;15.00;99.90
49549;DHT22;35450;44.518;7.466;2023-05-21T11:50:13;15.00;99.90
49549;DHT22;35450;44.518;7.466;2023-05-21T11:53:18;15.00;99.90
49549;DHT22;35450;44.518;7.466;2023-05-21T11:56:22;15.00;99.90
49549;DHT22;35450;44.518;7.466;2023-05-21T11:59:27;15.00;99.90
49549;DHT22;35450;44.518;7.466;2023-05-21T12:02:31;15.00;99.90
49549;DHT22;35450;44.518;7.466;2023-05-21T12:05:48;15.00;99.90
49549;DHT22;35450;44.518;7.466;2023-05-21T12:08:52;15.10;99.90
49549;DHT22;35450;44.518;7.466;2023-05-21T12:12:00;15.10;99.90
49549;DHT22;35450;44.518;7.466;2023-05-21T12:15:05;15.10;99.90
49549;DHT22;35450;44.518;7.466;2023-05-21T12:18:09;15.20;99.90
49549;DHT22;35450;44.518;7.466;2023-05-21T12:21:14;15.10;99.90
49549;DHT22;35450;44.518;7.466;2023-05-21T12:24:18;15.20;99.90
49549;DHT22;35450;44.518;7.466;2023-05-21T12:27:22;15.20;99.90
49549;DHT22;35450;44.518;7.466;2023-05-21T12:30:27;15.30;99.90
49549;DHT22;35450;44.518;7.466;2023-05-21T12:33:34;15.30;99.90
49549;DHT22;35450;44.518;7.466;2023-05-21T12:36:38;15.30;99.90
49549;DHT22;35450;44.518;7.466;2023-05-21T12:39:43;15.30;99.90
49549;DHT22;35450;44.518;7.466;2023-05-21T12:42:48;15.40;99.90
49549;DHT22;35450;44.518;7.466;2023-05-21T12:45:52;15.40;99.90
49549;DHT22;35450;44.518;7.466;2023-05-21T12:48:56;15.50;99.90
49549;DHT22;35450;44.518;7.466;2023-05-21T12:52:06;15.50;99.90
49549;DHT22;35450;44.518;7.466;2023-05-21T12:55:14;15.50;99.90
49549;DHT22;35450;44.518;7.466;2023-05-21T12:58:21;15.60;99.90
49549;DHT22;35450;44.518;7.466;2023-05-21T13:01:25;15.60;99.90
49549;DHT22;35450;44.518;7.466;2023-05-21T13:04:29;15.70;99.90
49549;DHT22;35450;44.518;7.466;2023-05-21T13:07:35;15.70;99.90
49549;DHT22;35450;44.518;7.466;2023-05-21T13:10:39;15.70;99.90
49549;DHT22;35450;44.518;7.466;2023-05-21T13:13:43;15.70;99.90
49549;DHT22;35450;44.518;7.466;2023-05-21T13:16:47;15.80;99.90
49549;DHT22;35450;44.518;7.466;2023-05-21T13:23:11;15.80;99.90
49549;DHT22;35450;44.518;7.466;2023-05-21T13:26:15;15.90;99.90
49549;DHT22;35450;44.518;7.466;2023-05-21T13:29:19;15.90;99.90
49549;DHT22;35450;44.518;7.466;2023-05-21T13:32:23;15.90;99.90
49549;DHT22;35450;44.518;7.466;2023-05-21T13:35:27;15.90;99.90
49549;DHT22;35450;44.518;7.466;2023-05-21T13:38:32;15.90;99.90
49549;DHT22;35450;44.518;7.466;2023-05-21T13:41:37;15.90;99.90
49549;DHT22;35450;44.518;7.466;2023-05-21T13:44:40;16.00;99.90
49549;DHT22;35450;44.518;7.466;2023-05-21T13:47:45;16.10;99.90
49549;DHT22;35450;44.518;7.466;2023-05-21T13:50:50;16.20;99.90
49549;DHT22;35450;44.518;7.466;2023-05-21T13:53:54;16.20;99.90
49549;DHT22;35450;44.518;7.466;2023-05-21T13:56:58;16.30;99.90
49549;DHT22;35450;44.518;7.466;2023-05-21T14:00:02;16.40;99.90
49549;DHT22;35450;44.518;7.466;2023-05-21T14:03:12;16.50;99.90
49549;DHT22;35450;44.518;7.466;2023-05-21T14:06:16;16.60;99.90
49549;DHT22;35450;44.518;7.466;2023-05-21T14:09:19;16.70;99.90
49549;DHT22;35450;44.518;7.466;2023-05-21T14:12:25;16.90;99.90
49549;DHT22;35450;44.518;7.466;2023-05-21T14:15:29;17.00;99.90
49549;DHT22;35450;44.518;7.466;2023-05-21T14:18:34;16.90;99.90
49549;DHT22;35450;44.518;7.466;2023-05-21T14:21:39;17.00;99.90
49549;DHT22;35450;44.518;7.466;2023-05-21T14:24:42;17.00;99.90
49549;DHT22;35450;44.518;7.466;2023-05-21T14:27:46;17.00;99.90
49549;DHT22;35450;44.518;7.466;2023-05-21T14:30:50;16.90;99.90
49549;DHT22;35450;44.518;7.466;2023-05-21T14:33:54;16.80;99.90
49549;DHT22;35450;44.518;7.466;2023-05-21T14:36:58;16.80;99.90
49549;DHT22;35450;44.518;7.466;2023-05-21T14:40:02;16.80;99.90
49549;DHT22;35450;44.518;7.466;2023-05-21T14:43:08;16.80;99.90
49549;DHT22;35450;44.518;7.466;2023-05-21T14:46:12;16.70;99.90
49549;DHT22;35450;44.518;7.466;2023-05-21T14:49:16;16.70;99.90
49549;DHT22;35450;44.518;7.466;2023-05-21T14:52:20;16.80;99.90
49549;DHT22;35450;44.518;7.466;2023-05-21T14:55:23;16.80;99.90
49549;DHT22;35450;44.518;7.466;2023-05-21T14:58:27;16.80;99.90
49549;DHT22;35450;44.518;7.466;2023-05-21T15:01:31;16.90;99.90
49549;DHT22;35450;44.518;7.466;2023-05-21T15:04:35;16.90;99.90
49549;DHT22;35450;44.518;7.466;2023-05-21T15:07:39;16.90;99.90
49549;DHT22;35450;44.518;7.466;2023-05-21T15:10:43;17.00;99.90
49549;DHT22;35450;44.518;7.466;2023-05-21T15:13:47;17.10;99.90
49549;DHT22;35450;44.518;7.466;2023-05-21T15:16:51;17.10;99.90
49549;DHT22;35450;44.518;7.466;2023-05-21T15:19:55;17.20;99.90
49549;DHT22;35450;44.518;7.466;2023-05-21T15:22:59;17.20;99.90
49549;DHT22;35450;44.518;7.466;2023-05-21T15:26:03;17.20;99.90
49549;DHT22;35450;44.518;7.466;2023-05-21T15:29:08;17.20;99.90
49549;DHT22;35450;44.518;7.466;2023-05-21T15:32:12;17.30;99.90
49549;DHT22;35450;44.518;7.466;2023-05-21T15:35:16;17.40;99.90
49549;DHT22;35450;44.518;7.466;2023-05-21T15:38:20;17.40;99.90
49549;DHT22;35450;44.518;7.466;2023-05-21T15:41:24;17.40;99.90
49549;DHT22;35450;44.518;7.466;2023-05-21T15:44:28;17.40;99.90
49549;DHT22;35450;44.518;7.466;2023-05-21T15:47:32;17.30;99.90
49549;DHT22;35450;44.518;7.466;2023-05-21T15:50:36;17.30;99.90
49549;DHT22;35450;44.518;7.466;2023-05-21T15:53:40;17.30;99.90
49549;DHT22;35450;44.518;7.466;2023-05-21T15:56:44;17.20;99.90
49549;DHT22;35450;44.518;7.466;2023-05-21T15:59:48;17.10;99.90
49549;DHT22;35450;44.518;7.466;2023-05-21T16:02:53;17.10;99.90
49549;DHT22;35450;44.518;7.466;2023-05-21T16:05:57;17.00;99.90
49549;DHT22;35450;44.518;7.466;2023-05-21T16:09:01;17.00;99.90
49549;DHT22;35450;44.518;7.466;2023-05-21T16:12:05;17.00;99.90
49549;DHT22;35450;44.518;7.466;2023-05-21T16:15:10;17.00;99.90
49549;DHT22;35450;44.518;7.466;2023-05-21T16:18:13;17.00;99.90
49549;DHT22;35450;44.518;7.466;2023-05-21T16:21:17;17.00;99.90
49549;DHT22;35450;44.518;7.466;2023-05-21T16:24:21;17.00;99.90
49549;DHT22;35450;44.518;7.466;2023-05-21T16:27:25;17.00;99.90
49549;DHT22;35450;44.518;7.466;2023-05-21T16:30:29;17.00;99.90
49549;DHT22;35450;44.518;7.466;2023-05-21T16:33:33;17.00;99.90
49549;DHT22;35450;44.518;7.466;2023-05-21T16:36:37;17.00;99.90
49549;DHT22;35450;44.518;7.466;2023-05-21T16:39:41;16.90;99.90
49549;DHT22;35450;44.518;7.466;2023-05-21T16:42:45;16.90;99.90
49549;DHT22;35450;44.518;7.466;2023-05-21T16:45:49;16.90;99.90
49549;DHT22;35450;44.518;7.466;2023-05-21T16:48:55;16.90;99.90
49549;DHT22;35450;44.518;7.466;2023-05-21T16:51:59;16.90;99.90
49549;DHT22;35450;44.518;7.466;2023-05-21T16:55:04;16.80;99.90
49549;DHT22;35450;44.518;7.466;2023-05-21T16:58:08;16.80;99.90
49549;DHT22;35450;44.518;7.466;2023-05-21T17:01:13;16.90;99.90
49549;DHT22;35450;44.518;7.466;2023-05-21T17:04:17;16.90;99.90
49549;DHT22;35450;44.518;7.466;2023-05-21T17:07:21;16.90;99.90
49549;DHT22;35450;44.518;7.466;2023-05-21T17:10:25;17.00;99.90
49549;DHT22;35450;44.518;7.466;2023-05-21T17:13:30;17.10;99.90
49549;DHT22;35450;44.518;7.466;2023-05-21T17:16:34;17.20;99.90
49549;DHT22;35450;44.518;7.466;2023-05-21T17:19:38;17.20;99.90
49549;DHT22;35450;44.518;7.466;2023-05-21T17:22:42;17.20;99.90
49549;DHT22;35450;44.518;7.466;2023-05-21T17:25:46;17.20;99.90
49549;DHT22;35450;44.518;7.466;2023-05-21T17:28:50;17.20;99.90
49549;DHT22;35450;44.518;7.466;2023-05-21T17:31:54;17.20;99.90
49549;DHT22;35450;44.518;7.466;2023-05-21T17:34:58;17.20;99.90
49549;DHT22;35450;44.518;7.466;2023-05-21T17:38:02;17.30;99.90
49549;DHT22;35450;44.518;7.466;2023-05-21T17:41:06;17.40;99.90
49549;DHT22;35450;44.518;7.466;2023-05-21T17:44:10;17.50;99.90
49549;DHT22;35450;44.518;7.466;2023-05-21T17:47:15;17.50;99.90
49549;DHT22;35450;44.518;7.466;2023-05-21T17:50:20;17.50;99.90
49549;DHT22;35450;44.518;7.466;2023-05-21T17:53:24;17.40;99.90
49549;DHT22;35450;44.518;7.466;2023-05-21T17:56:28;17.30;99.90
49549;DHT22;35450;44.518;7.466;2023-05-21T17:59:32;17.10;99.90
49549;DHT22;35450;44.518;7.466;2023-05-21T18:02:35;17.10;99.90
49549;DHT22;35450;44.518;7.466;2023-05-21T18:05:39;17.00;99.90
49549;DHT22;35450;44.518;7.466;2023-05-21T18:08:44;17.00;99.90
49549;DHT22;35450;44.518;7.466;2023-05-21T18:11:47;17.00;99.90
49549;DHT22;35450;44.518;7.466;2023-05-21T18:14:51;16.70;99.90
49549;DHT22;35450;44.518;7.466;2023-05-21T18:17:55;16.80;99.90
49549;DHT22;35450;44.518;7.466;2023-05-21T18:20:59;16.70;99.90
49549;DHT22;35450;44.518;7.466;2023-05-21T18:24:04;16.60;99.90
49549;DHT22;35450;44.518;7.466;2023-05-21T18:27:08;16.60;99.90
49549;DHT22;35450;44.518;7.466;2023-05-21T18:30:12;16.60;99.90
49549;DHT22;35450;44.518;7.466;2023-05-21T18:33:17;16.50;99.90
49549;DHT22;35450;44.518;7.466;2023-05-21T18:36:21;16.40;99.90
49549;DHT22;35450;44.518;7.466;2023-05-21T18:39:25;16.40;99.90
49549;DHT22;35450;44.518;7.466;2023-05-21T18:42:30;16.30;99.90
49549;DHT22;35450;44.518;7.466;2023-05-21T18:45:35;16.30;99.90
49549;DHT22;35450;44.518;7.466;2023-05-21T18:48:39;16.20;99.90
49549;DHT22;35450;44.518;7.466;2023-05-21T18:51:43;16.20;99.90
49549;DHT22;35450;44.518;7.466;2023-05-21T18:54:47;16.20;99.90
49549;DHT22;35450;44.518;7.466;2023-05-21T18:57:51;16.10;99.90
49549;DHT22;35450;44.518;7.466;2023-05-21T19:00:55;16.10;99.90
49549;DHT22;35450;44.518;7.466;2023-05-21T19:03:59;16.10;99.90
49549;DHT22;35450;44.518;7.466;2023-05-21T19:07:03;16.10;99.90
49549;DHT22;35450;44.518;7.466;2023-05-21T19:10:07;16.00;99.90
49549;DHT22;35450;44.518;7.466;2023-05-21T19:13:11;16.00;99.90
49549;DHT22;35450;44.518;7.466;2023-05-21T19:16:15;16.00;99.90
49549;DHT22;35450;44.518;7.466;2023-05-21T19:19:19;15.90;99.90
49549;DHT22;35450;44.518;7.466;2023-05-21T19:22:25;15.90;99.90
49549;DHT22;35450;44.518;7.466;2023-05-21T19:25:29;15.90;99.90
49549;DHT22;35450;44.518;7.466;2023-05-21T19:28:35;15.80;99.90
49549;DHT22;35450;44.518;7.466;2023-05-21T19:31:40;15.80;99.90
49549;DHT22;35450;44.518;7.466;2023-05-21T19:34:45;15.70;99.90
49549;DHT22;35450;44.518;7.466;2023-05-21T19:37:49;15.70;99.90
49549;DHT22;35450;44.518;7.466;2023-05-21T19:40:53;15.70;99.90
49549;DHT22;35450;44.518;7.466;2023-05-21T19:43:57;15.70;99.90
49549;DHT22;35450;44.518;7.466;2023-05-21T19:47:01;15.70;99.90
49549;DHT22;35450;44.518;7.466;2023-05-21T19:50:06;15.80;99.90
49549;DHT22;35450;44.518;7.466;2023-05-21T19:53:10;15.80;99.90
49549;DHT22;35450;44.518;7.466;2023-05-21T19:56:15;15.80;99.90
49549;DHT22;35450;44.518;7.466;2023-05-21T19:59:18;15.70;99.90